Bolingbrook's Clow International Airport

Jump to: basic info | weather | frequencies | runways | comments

Related pages: nearby airports | nearby navaids | notams | map

Basic information (top)

Codes: K1C5 1C5
Location: lon 41.695999, lat -88.129204, elev 670 ft / 204 m msl
Status: small_airport
Scheduled airline service: no
Links: Wikipedia Mobile

Weather (top)

Current conditions for Lewis University Airport 6nm (10km) SSE (rec'd 2015/04/19 15:15Z):

KLOT 191515Z AUTO 11010G16KT 10SM CLR 19/03 A2975

Airport forecast for Dupage Airport 14nm (26km) NNW (rec'd 2015/04/19 12:39Z):

TAF KDPA 191135Z 1912/2012 09012KT P6SM SCT040 BKN080 BKN250 
     FM191500 06012G17KT P6SM OVC070 
     FM192100 05015KT 6SM BR VCSH BKN040 OVC050 
     FM192300 03012KT 5SM -SHRA BR OVC015 
     FM200300 36006KT 6SM -SHRA OVC008 
     FM200600 29008KT 6SM BR VCSH BKN008 OVC015

Frequencies (top)

Verify before use: may be inaccurate or out of date.

A/D: 119.35 MHz (CHICAGO APP/DEP)
CTAF: 122.9 MHz (CTAF)

Runways (top)

18/36: 3,362 x 50 ft (1,025 x 15 m) — other (ASPH-G) — lighted — threshold 18 displaced 190 ft (58 m) — threshold 36 displaced 130 ft (40 m)

Latest comments (top)

1C5 - Clow International - First Starts: I started primary training here a long ... [read]

More... (top)

See also NOTAMs and nearby airports and navaids, or visit the Bolingbrook's Clow International Airport page at the main OurAirports website..